sensor_id;sensor_type;location;lat;lon;timestamp;temperature;humidity
26051;DHT22;13825;53.496;10.020;2023-04-05T00:00:55;-1.70;99.90
26051;DHT22;13825;53.496;10.020;2023-04-05T00:04:04;-1.70;99.90
26051;DHT22;13825;53.496;10.020;2023-04-05T00:06:56;-1.70;99.90
26051;DHT22;13825;53.496;10.020;2023-04-05T00:10:00;-1.80;99.90
26051;DHT22;13825;53.496;10.020;2023-04-05T04:26:21;-3.30;99.90
26051;DHT22;13825;53.496;10.020;2023-04-05T04:29:07;-3.40;99.90
26051;DHT22;13825;53.496;10.020;2023-04-05T04:32:07;-3.50;99.90
26051;DHT22;13825;53.496;10.020;2023-04-05T04:34:58;-3.40;99.90
26051;DHT22;13825;53.496;10.020;2023-04-05T04:37:53;-3.40;99.90
26051;DHT22;13825;53.496;10.020;2023-04-05T04:40:32;-3.40;99.90
26051;DHT22;13825;53.496;10.020;2023-04-05T04:43:36;-3.40;99.90
26051;DHT22;13825;53.496;10.020;2023-04-05T04:49:39;-3.40;99.90
26051;DHT22;13825;53.496;10.020;2023-04-05T04:52:47;-3.30;99.90
26051;DHT22;13825;53.496;10.020;2023-04-05T04:55:26;-3.50;99.90
26051;DHT22;13825;53.496;10.020;2023-04-05T04:58:23;-3.40;99.90
26051;DHT22;13825;53.496;10.020;2023-04-05T05:01:26;-3.40;99.90
26051;DHT22;13825;53.496;10.020;2023-04-05T05:04:13;-3.30;99.90
26051;DHT22;13825;53.496;10.020;2023-04-05T05:06:55;-3.30;99.90
26051;DHT22;13825;53.496;10.020;2023-04-05T05:10:26;-3.20;99.90
26051;DHT22;13825;53.496;10.020;2023-04-05T05:16:54;-3.10;99.90
26051;DHT22;13825;53.496;10.020;2023-04-05T05:23:03;-3.10;99.90
26051;DHT22;13825;53.496;10.020;2023-04-05T05:25:44;-3.10;99.90
26051;DHT22;13825;53.496;10.020;2023-04-05T05:28:23;-2.90;99.90
26051;DHT22;13825;53.496;10.020;2023-04-05T05:30:54;-2.90;99.90
26051;DHT22;13825;53.496;10.020;2023-04-05T05:33:47;-2.90;99.90
26051;DHT22;13825;53.496;10.020;2023-04-05T05:36:29;-2.90;99.90
26051;DHT22;13825;53.496;10.020;2023-04-05T05:39:34;-2.80;99.90
26051;DHT22;13825;53.496;10.020;2023-04-05T05:42:21;-2.70;99.90
26051;DHT22;13825;53.496;10.020;2023-04-05T05:44:55;-2.50;99.90
26051;DHT22;13825;53.496;10.020;2023-04-05T05:47:36;-2.60;99.90
26051;DHT22;13825;53.496;10.020;2023-04-05T05:50:17;-2.40;99.90
26051;DHT22;13825;53.496;10.020;2023-04-05T05:53:07;-2.30;99.90
26051;DHT22;13825;53.496;10.020;2023-04-05T05:55:48;-2.00;99.90
26051;DHT22;13825;53.496;10.020;2023-04-05T06:06:45;-1.80;99.90
26051;DHT22;13825;53.496;10.020;2023-04-05T06:09:16;-1.80;99.90
26051;DHT22;13825;53.496;10.020;2023-04-05T06:12:08;-1.60;99.90
26051;DHT22;13825;53.496;10.020;2023-04-05T06:14:45;-1.60;99.90
26051;DHT22;13825;53.496;10.020;2023-04-05T06:17:48;-1.50;99.90
26051;DHT22;13825;53.496;10.020;2023-04-05T06:20:29;-1.50;99.90
26051;DHT22;13825;53.496;10.020;2023-04-05T06:23:59;-1.30;99.90
26051;DHT22;13825;53.496;10.020;2023-04-05T06:29:29;-1.00;99.90
26051;DHT22;13825;53.496;10.020;2023-04-05T06:35:13;-0.90;99.90
26051;DHT22;13825;53.496;10.020;2023-04-05T06:37:45;-0.70;99.90
26051;DHT22;13825;53.496;10.020;2023-04-05T06:40:21;-0.60;99.90
26051;DHT22;13825;53.496;10.020;2023-04-05T06:42:54;-0.40;99.90
26051;DHT22;13825;53.496;10.020;2023-04-05T06:45:22;-0.10;99.90
26051;DHT22;13825;53.496;10.020;2023-04-05T06:47:49;0.20;99.90
26051;DHT22;13825;53.496;10.020;2023-04-05T06:50:26;0.50;99.90
26051;DHT22;13825;53.496;10.020;2023-04-05T06:52:53;0.70;99.90
26051;DHT22;13825;53.496;10.020;2023-04-05T06:55:23;1.00;99.90
26051;DHT22;13825;53.496;10.020;2023-04-05T06:58:07;1.10;99.90
26051;DHT22;13825;53.496;10.020;2023-04-05T07:00:35;1.40;99.90
26051;DHT22;13825;53.496;10.020;2023-04-05T07:03:02;1.60;99.90
26051;DHT22;13825;53.496;10.020;2023-04-05T07:05:31;1.90;99.90
26051;DHT22;13825;53.496;10.020;2023-04-05T07:07:58;2.20;97.70
26051;DHT22;13825;53.496;10.020;2023-04-05T07:10:29;2.30;96.50
26051;DHT22;13825;53.496;10.020;2023-04-05T07:12:56;2.40;95.20
26051;DHT22;13825;53.496;10.020;2023-04-05T07:15:30;2.50;94.70
26051;DHT22;13825;53.496;10.020;2023-04-05T07:17:58;2.70;92.30
26051;DHT22;13825;53.496;10.020;2023-04-05T07:20:30;2.80;93.90
26051;DHT22;13825;53.496;10.020;2023-04-05T07:22:59;2.90;94.60
26051;DHT22;13825;53.496;10.020;2023-04-05T07:25:30;3.10;95.40
26051;DHT22;13825;53.496;10.020;2023-04-05T07:28:02;3.30;96.10
26051;DHT22;13825;53.496;10.020;2023-04-05T07:30:33;3.40;96.10
26051;DHT22;13825;53.496;10.020;2023-04-05T07:33:01;3.60;96.20
26051;DHT22;13825;53.496;10.020;2023-04-05T07:35:29;3.60;94.90
26051;DHT22;13825;53.496;10.020;2023-04-05T07:37:58;3.60;94.70
26051;DHT22;13825;53.496;10.020;2023-04-05T07:40:27;3.70;95.10
26051;DHT22;13825;53.496;10.020;2023-04-05T07:43:10;3.70;95.10
26051;DHT22;13825;53.496;10.020;2023-04-05T07:45:42;3.70;95.50
26051;DHT22;13825;53.496;10.020;2023-04-05T07:48:21;3.70;94.20
26051;DHT22;13825;53.496;10.020;2023-04-05T07:50:50;3.70;93.10
26051;DHT22;13825;53.496;10.020;2023-04-05T07:53:20;3.60;91.90
26051;DHT22;13825;53.496;10.020;2023-04-05T07:55:51;3.80;86.30
26051;DHT22;13825;53.496;10.020;2023-04-05T07:58:23;3.90;89.00
26051;DHT22;13825;53.496;10.020;2023-04-05T08:00:58;4.10;87.50
26051;DHT22;13825;53.496;10.020;2023-04-05T08:03:25;4.20;81.10
26051;DHT22;13825;53.496;10.020;2023-04-05T08:05:52;4.40;71.00
26051;DHT22;13825;53.496;10.020;2023-04-05T08:08:20;4.50;71.50
26051;DHT22;13825;53.496;10.020;2023-04-05T08:10:47;4.60;63.10
26051;DHT22;13825;53.496;10.020;2023-04-05T08:13:14;4.80;63.20
26051;DHT22;13825;53.496;10.020;2023-04-05T08:15:42;4.80;56.80
26051;DHT22;13825;53.496;10.020;2023-04-05T08:18:09;4.80;52.50
26051;DHT22;13825;53.496;10.020;2023-04-05T08:20:37;4.90;57.60
26051;DHT22;13825;53.496;10.020;2023-04-05T08:23:05;5.00;56.80
26051;DHT22;13825;53.496;10.020;2023-04-05T08:25:32;5.10;54.90
26051;DHT22;13825;53.496;10.020;2023-04-05T08:27:59;5.30;52.00
26051;DHT22;13825;53.496;10.020;2023-04-05T08:30:26;5.50;44.60
26051;DHT22;13825;53.496;10.020;2023-04-05T08:32:55;5.70;35.70
26051;DHT22;13825;53.496;10.020;2023-04-05T08:35:22;5.80;37.60
26051;DHT22;13825;53.496;10.020;2023-04-05T08:37:49;6.00;31.00
26051;DHT22;13825;53.496;10.020;2023-04-05T08:40:16;6.00;24.50
26051;DHT22;13825;53.496;10.020;2023-04-05T08:42:49;6.00;21.20
26051;DHT22;13825;53.496;10.020;2023-04-05T08:45:19;6.20;17.60
26051;DHT22;13825;53.496;10.020;2023-04-05T08:47:48;6.30;19.40
26051;DHT22;13825;53.496;10.020;2023-04-05T08:50:19;6.10;17.50
26051;DHT22;13825;53.496;10.020;2023-04-05T08:52:49;6.20;18.20
26051;DHT22;13825;53.496;10.020;2023-04-05T08:55:17;6.50;10.90
26051;DHT22;13825;53.496;10.020;2023-04-05T08:57:49;6.60;16.20
26051;DHT22;13825;53.496;10.020;2023-04-05T09:00:19;6.70;15.00
26051;DHT22;13825;53.496;10.020;2023-04-05T09:02:49;6.90;17.70
26051;DHT22;13825;53.496;10.020;2023-04-05T09:05:22;6.90;10.50
26051;DHT22;13825;53.496;10.020;2023-04-05T09:07:50;7.10;12.40
26051;DHT22;13825;53.496;10.020;2023-04-05T09:10:20;7.20;14.30
26051;DHT22;13825;53.496;10.020;2023-04-05T09:12:48;7.20;7.60
26051;DHT22;13825;53.496;10.020;2023-04-05T09:15:16;7.10;5.50
26051;DHT22;13825;53.496;10.020;2023-04-05T09:17:46;7.20;6.30
26051;DHT22;13825;53.496;10.020;2023-04-05T09:20:18;7.30;8.60
26051;DHT22;13825;53.496;10.020;2023-04-05T09:22:50;7.60;7.60
26051;DHT22;13825;53.496;10.020;2023-04-05T09:25:33;7.70;7.30
26051;DHT22;13825;53.496;10.020;2023-04-05T09:28:01;7.90;12.40
26051;DHT22;13825;53.496;10.020;2023-04-05T09:30:29;8.00;6.40
26051;DHT22;13825;53.496;10.020;2023-04-05T09:32:58;8.10;7.00
26051;DHT22;13825;53.496;10.020;2023-04-05T09:35:27;8.20;2.70
26051;DHT22;13825;53.496;10.020;2023-04-05T09:37:57;8.00;6.40
26051;DHT22;13825;53.496;10.020;2023-04-05T09:40:40;7.80;2.90
26051;DHT22;13825;53.496;10.020;2023-04-05T09:43:07;8.00;7.70
26051;DHT22;13825;53.496;10.020;2023-04-05T09:45:38;8.40;1.00
26051;DHT22;13825;53.496;10.020;2023-04-05T09:48:06;8.40;1.00
26051;DHT22;13825;53.496;10.020;2023-04-05T09:50:35;8.70;1.00
26051;DHT22;13825;53.496;10.020;2023-04-05T09:53:10;9.10;1.00
26051;DHT22;13825;53.496;10.020;2023-04-05T09:55:43;9.00;1.00
26051;DHT22;13825;53.496;10.020;2023-04-05T09:58:11;8.90;1.00
26051;DHT22;13825;53.496;10.020;2023-04-05T10:00:47;8.60;1.00
26051;DHT22;13825;53.496;10.020;2023-04-05T10:03:17;8.60;1.00
26051;DHT22;13825;53.496;10.020;2023-04-05T10:05:45;8.70;1.00
26051;DHT22;13825;53.496;10.020;2023-04-05T10:08:14;8.90;1.00
26051;DHT22;13825;53.496;10.020;2023-04-05T10:10:46;9.00;1.00
26051;DHT22;13825;53.496;10.020;2023-04-05T10:13:14;9.30;1.00
26051;DHT22;13825;53.496;10.020;2023-04-05T10:15:44;9.40;1.00
26051;DHT22;13825;53.496;10.020;2023-04-05T10:18:17;9.60;1.00
